createdAt,value
2023-04-26T00:00:49.310Z,7.05
2023-04-26T00:03:16.115Z,6.97
2023-04-26T00:05:43.091Z,6.88
2023-04-26T00:08:09.767Z,6.65
2023-04-26T00:10:37.310Z,6.82
2023-04-26T00:13:04.718Z,6.57
2023-04-26T00:15:32.347Z,6.90
2023-04-26T00:17:59.663Z,8.10
2023-04-26T00:20:26.314Z,9.18
2023-04-26T00:22:53.322Z,6.50
2023-04-26T00:25:20.190Z,6.88
2023-04-26T00:27:46.763Z,6.72
2023-04-26T00:30:13.997Z,6.88
2023-04-26T00:32:40.648Z,6.90
2023-04-26T00:35:08.017Z,8.00
2023-04-26T00:37:34.674Z,7.00
2023-04-26T00:40:01.487Z,8.02
2023-04-26T00:42:28.612Z,7.53
2023-04-26T00:44:57.629Z,8.45
2023-04-26T00:47:26.079Z,7.90
2023-04-26T00:49:53.310Z,7.88
2023-04-26T00:52:20.072Z,7.65
2023-04-26T00:54:48.856Z,7.47
2023-04-26T00:57:16.010Z,8.45
2023-04-26T00:59:42.817Z,7.47
2023-04-26T01:02:09.748Z,7.50
2023-04-26T01:04:37.340Z,7.90
2023-04-26T01:07:04.118Z,8.23
2023-04-26T01:09:34.623Z,7.35
2023-04-26T01:12:01.770Z,7.38
2023-04-26T01:14:29.226Z,7.90
2023-04-26T01:16:57.524Z,8.32
2023-04-26T01:19:24.140Z,7.75
2023-04-26T01:21:50.874Z,7.93
2023-04-26T01:24:19.592Z,9.07
2023-04-26T01:26:46.571Z,8.32
2023-04-26T01:29:14.646Z,8.10
2023-04-26T01:31:41.357Z,8.63
2023-04-26T01:34:07.997Z,8.27
2023-04-26T01:36:34.902Z,8.93
2023-04-26T01:39:01.561Z,8.05
2023-04-26T01:41:28.246Z,8.82
2023-04-26T01:43:55.762Z,9.70
2023-04-26T01:46:22.639Z,9.18
2023-04-26T01:48:49.397Z,8.10
2023-04-26T01:51:16.698Z,9.10
2023-04-26T01:53:43.464Z,9.52
2023-04-26T01:56:10.347Z,9.68
2023-04-26T01:58:36.963Z,9.07
2023-04-26T02:01:11.946Z,8.93
2023-04-26T02:03:38.713Z,9.82
2023-04-26T02:06:05.520Z,9.55
2023-04-26T02:08:41.009Z,9.50
2023-04-26T02:11:07.719Z,9.20
2023-04-26T02:13:34.446Z,10.07
2023-04-26T02:16:01.158Z,9.82
2023-04-26T02:18:30.502Z,9.77
2023-04-26T02:20:57.402Z,10.50
2023-04-26T02:23:24.570Z,10.55
2023-04-26T02:25:51.393Z,10.48
2023-04-26T02:28:18.140Z,10.20
2023-04-26T02:30:44.935Z,10.25
2023-04-26T02:33:11.784Z,10.50
2023-04-26T02:35:40.866Z,9.05
2023-04-26T02:38:07.515Z,9.55
2023-04-26T02:40:34.256Z,9.27
2023-04-26T02:43:01.034Z,9.25
2023-04-26T02:45:27.694Z,8.27
2023-04-26T02:47:54.468Z,9.63
2023-04-26T02:50:21.199Z,9.48
2023-04-26T02:52:50.823Z,9.45
2023-04-26T02:55:17.557Z,10.73
2023-04-26T02:57:44.141Z,9.45
2023-04-26T03:00:14.118Z,9.88
2023-04-26T03:02:41.229Z,9.25
2023-04-26T03:05:09.669Z,9.23
2023-04-26T03:07:40.700Z,8.20
2023-04-26T03:10:09.967Z,9.20
2023-04-26T03:12:36.792Z,7.65
2023-04-26T03:15:04.192Z,8.02
2023-04-26T03:17:30.915Z,8.25
2023-04-26T03:19:57.629Z,7.80
2023-04-26T03:22:24.468Z,8.65
2023-04-26T03:24:51.102Z,7.72
2023-04-26T03:27:17.784Z,8.85
2023-04-26T03:29:44.529Z,9.32
2023-04-26T03:32:11.282Z,10.70
2023-04-26T03:34:38.119Z,8.90
2023-04-26T03:37:04.818Z,9.45
2023-04-26T03:39:31.525Z,8.30
2023-04-26T03:41:58.196Z,7.85
2023-04-26T03:44:24.897Z,8.45
2023-04-26T03:46:51.582Z,8.30
2023-04-26T03:49:18.239Z,7.85
2023-04-26T03:51:44.906Z,8.68
2023-04-26T03:54:11.744Z,8.32
2023-04-26T03:56:39.281Z,8.88
2023-04-26T03:59:06.185Z,8.45
2023-04-26T04:01:33.098Z,8.57
2023-04-26T04:04:00.076Z,9.45
2023-04-26T04:06:27.088Z,9.57
2023-04-26T04:08:54.097Z,10.10
2023-04-26T04:11:21.935Z,10.13
2023-04-26T04:13:48.866Z,10.02
2023-04-26T04:16:15.545Z,10.60
2023-04-26T04:18:42.252Z,10.48
2023-04-26T04:21:08.850Z,10.80
2023-04-26T04:23:35.540Z,10.45
2023-04-26T04:26:03.268Z,11.40
2023-04-26T04:28:29.949Z,10.85
2023-04-26T04:30:57.180Z,9.93
2023-04-26T04:33:25.815Z,9.45
2023-04-26T04:35:52.567Z,10.45
2023-04-26T04:38:19.146Z,10.55
2023-04-26T04:40:48.273Z,11.60
2023-04-26T04:43:15.632Z,10.55
2023-04-26T04:45:42.822Z,9.75
2023-04-26T04:48:11.545Z,9.57
2023-04-26T04:50:42.211Z,11.32
2023-04-26T04:53:12.849Z,10.88
2023-04-26T04:55:39.532Z,10.30
2023-04-26T04:58:06.767Z,11.00
2023-04-26T05:00:34.117Z,11.25
2023-04-26T05:03:01.053Z,10.32
2023-04-26T05:05:27.996Z,10.75
2023-04-26T05:07:54.707Z,10.45
2023-04-26T05:10:21.487Z,10.27
2023-04-26T05:12:48.254Z,11.32
2023-04-26T05:15:14.953Z,9.73
2023-04-26T05:17:42.417Z,8.77
2023-04-26T05:20:09.513Z,9.45
2023-04-26T05:22:36.953Z,8.82
2023-04-26T05:25:05.045Z,9.07
2023-04-26T05:27:31.733Z,9.10
2023-04-26T05:29:58.523Z,8.38
2023-04-26T05:32:25.192Z,8.25
2023-04-26T05:34:52.059Z,9.93
2023-04-26T05:37:18.806Z,11.30
2023-04-26T05:39:45.664Z,8.88
2023-04-26T05:42:15.177Z,8.63
2023-04-26T05:44:42.879Z,9.73
2023-04-26T05:47:09.825Z,9.65
2023-04-26T05:49:36.546Z,10.48
2023-04-26T05:52:06.447Z,11.57
2023-04-26T05:54:33.122Z,10.02
2023-04-26T05:56:59.944Z,10.70
2023-04-26T05:59:26.856Z,11.50
2023-04-26T06:01:53.524Z,11.50
2023-04-26T06:04:20.298Z,11.48
2023-04-26T06:06:47.052Z,12.05
2023-04-26T06:09:13.888Z,12.18
2023-04-26T06:11:40.484Z,11.35
2023-04-26T06:14:10.446Z,14.80
2023-04-26T06:16:43.948Z,13.85
2023-04-26T06:19:10.736Z,12.85
2023-04-26T06:21:37.463Z,13.50
2023-04-26T06:24:04.303Z,11.18
2023-04-26T06:26:32.171Z,12.88
2023-04-26T06:29:01.382Z,11.85
2023-04-26T06:31:28.077Z,12.60
2023-04-26T06:33:54.956Z,11.20
2023-04-26T06:36:21.785Z,11.88
2023-04-26T06:38:48.794Z,11.80
2023-04-26T06:41:15.727Z,12.35
2023-04-26T06:43:42.459Z,13.63
2023-04-26T06:46:12.193Z,13.13
2023-04-26T06:48:38.876Z,14.50
2023-04-26T06:51:09.000Z,14.25
2023-04-26T06:53:38.624Z,13.10
2023-04-26T06:56:08.177Z,13.98
2023-04-26T06:58:35.126Z,13.90
2023-04-26T07:01:02.616Z,13.68
2023-04-26T07:03:31.270Z,13.48
2023-04-26T07:05:57.998Z,14.75
2023-04-26T07:08:24.726Z,14.48
2023-04-26T07:10:51.958Z,12.75
2023-04-26T07:13:24.567Z,14.50
2023-04-26T07:15:51.314Z,11.98
2023-04-26T07:18:18.713Z,11.75
2023-04-26T07:23:32.638Z,11.55
2023-04-26T07:25:59.509Z,9.80
2023-04-26T07:28:26.607Z,9.95
2023-04-26T07:30:53.533Z,9.18
2023-04-26T07:33:20.265Z,9.57
2023-04-26T07:35:57.143Z,8.75
2023-04-26T07:38:24.258Z,9.23
2023-04-26T07:40:52.276Z,9.60
2023-04-26T07:43:20.598Z,9.85
2023-04-26T07:45:47.409Z,8.38
2023-04-26T07:48:14.220Z,9.32
2023-04-26T07:50:40.815Z,9.45
2023-04-26T07:53:10.182Z,9.13
2023-04-26T07:55:45.228Z,7.13
2023-04-26T07:58:14.627Z,6.82
2023-04-26T08:00:42.166Z,6.00
2023-04-26T08:03:09.265Z,6.93
2023-04-26T08:05:36.478Z,6.25
2023-04-26T08:08:03.183Z,4.80
2023-04-26T08:10:30.179Z,4.65
2023-04-26T08:12:57.491Z,3.03
2023-04-26T08:15:24.238Z,2.58
2023-04-26T08:17:53.462Z,3.05
2023-04-26T08:20:20.993Z,3.90
2023-04-26T08:22:47.721Z,2.33
2023-04-26T08:25:15.977Z,2.70
2023-04-26T08:27:44.748Z,2.78
2023-04-26T08:30:14.210Z,3.33
2023-04-26T08:32:41.088Z,2.60
2023-04-26T08:35:29.029Z,3.70
2023-04-26T08:37:55.634Z,2.88
2023-04-26T08:40:31.805Z,2.72
2023-04-26T08:42:58.456Z,2.88
2023-04-26T08:45:25.174Z,2.65
2023-04-26T08:47:55.787Z,2.67
2023-04-26T08:50:23.519Z,2.85
2023-04-26T08:52:52.267Z,3.45
2023-04-26T08:55:29.810Z,3.75
2023-04-26T08:57:56.871Z,3.03
2023-04-26T09:00:23.906Z,3.47
2023-04-26T09:02:52.927Z,3.33
2023-04-26T09:05:24.683Z,3.30
2023-04-26T09:08:18.341Z,4.00
2023-04-26T09:10:45.247Z,3.50
2023-04-26T09:13:12.601Z,4.55
2023-04-26T09:15:48.336Z,3.55
2023-04-26T09:18:34.106Z,3.50
2023-04-26T09:21:08.930Z,3.08
2023-04-26T09:23:35.944Z,2.85
2023-04-26T09:26:22.480Z,3.25
2023-04-26T09:29:11.877Z,3.33
2023-04-26T09:31:40.998Z,2.90
2023-04-26T09:34:08.752Z,2.67
2023-04-26T09:36:57.644Z,2.60
2023-04-26T09:39:40.962Z,2.75
2023-04-26T09:42:13.962Z,3.60
2023-04-26T09:44:40.651Z,3.22
2023-04-26T09:47:11.936Z,3.20
2023-04-26T09:49:50.577Z,3.55
2023-04-26T09:52:22.076Z,2.88
2023-04-26T09:54:52.435Z,3.20
2023-04-26T09:57:20.497Z,3.08
2023-04-26T09:59:49.090Z,2.63
2023-04-26T10:02:21.053Z,3.17
2023-04-26T10:04:53.395Z,3.03
2023-04-26T10:07:25.480Z,2.45
2023-04-26T10:09:52.207Z,3.08
2023-04-26T10:12:20.302Z,3.53
2023-04-26T10:14:47.499Z,2.30
2023-04-26T10:17:14.618Z,3.20
2023-04-26T10:19:46.697Z,3.53
2023-04-26T10:22:22.261Z,3.42
2023-04-26T10:24:50.037Z,3.20
2023-04-26T10:27:49.086Z,2.95
2023-04-26T10:30:17.164Z,2.65
2023-04-26T10:32:56.021Z,3.35
2023-04-26T10:35:32.917Z,3.25
2023-04-26T10:37:59.600Z,2.67
2023-04-26T10:40:40.496Z,3.75
2023-04-26T10:43:11.819Z,2.72
2023-04-26T10:45:40.023Z,3.33
2023-04-26T10:48:36.879Z,2.80
2023-04-26T10:51:08.624Z,3.10
2023-04-26T10:53:47.605Z,3.75
2023-04-26T10:56:25.301Z,4.07
2023-04-26T10:59:53.993Z,3.65
2023-04-26T11:02:47.019Z,3.28
2023-04-26T11:05:42.086Z,4.45
2023-04-26T11:08:24.827Z,8.23
2023-04-26T11:10:58.578Z,3.47
2023-04-26T11:14:02.247Z,3.40
2023-04-26T11:16:29.169Z,5.35
2023-04-26T11:18:56.441Z,4.32
2023-04-26T11:21:23.145Z,4.55
2023-04-26T11:23:59.993Z,4.20
2023-04-26T11:26:36.297Z,4.90
2023-04-26T11:29:29.530Z,4.57
2023-04-26T11:31:57.811Z,4.20
2023-04-26T11:34:35.423Z,3.95
2023-04-26T11:37:03.370Z,4.10
2023-04-26T11:40:20.034Z,4.45
2023-04-26T11:43:00.136Z,4.32
2023-04-26T11:45:26.976Z,4.18
2023-04-26T11:47:57.607Z,12.93
2023-04-26T11:50:27.014Z,4.40
2023-04-26T11:53:37.126Z,12.30
2023-04-26T11:56:25.310Z,6.43
2023-04-26T11:58:59.900Z,4.20
2023-04-26T12:01:39.709Z,4.32
2023-04-26T12:04:10.601Z,9.55
2023-04-26T12:06:45.605Z,5.88
2023-04-26T12:09:16.092Z,4.60
2023-04-26T12:12:06.479Z,3.97
2023-04-26T12:14:38.267Z,4.95
2023-04-26T12:17:07.791Z,4.65
2023-04-26T12:19:39.119Z,7.85
2023-04-26T12:22:09.136Z,5.13
2023-04-26T12:24:37.049Z,5.20
2023-04-26T12:27:06.662Z,4.70
2023-04-26T12:29:37.765Z,4.32
2023-04-26T12:32:07.703Z,4.35
2023-04-26T12:34:34.777Z,5.25
2023-04-26T12:37:01.361Z,4.20
2023-04-26T12:39:27.995Z,5.07
2023-04-26T12:41:55.286Z,5.82
2023-04-26T12:44:24.971Z,5.40
2023-04-26T12:46:51.874Z,4.65
2023-04-26T12:49:18.726Z,4.50
2023-04-26T12:51:48.479Z,5.20
2023-04-26T12:54:15.059Z,5.38
2023-04-26T12:56:45.504Z,4.68
2023-04-26T12:59:12.305Z,4.97
2023-04-26T13:01:39.029Z,4.40
2023-04-26T13:04:10.251Z,4.85
2023-04-26T13:06:37.218Z,4.88
2023-04-26T13:09:03.946Z,4.70
2023-04-26T13:11:30.586Z,5.70
2023-04-26T13:13:57.170Z,5.47
2023-04-26T13:16:24.040Z,5.20
2023-04-26T13:18:50.947Z,5.03
2023-04-26T13:21:20.486Z,5.32
2023-04-26T13:23:47.521Z,6.43
2023-04-26T13:26:14.909Z,6.13
2023-04-26T13:28:42.111Z,5.15
2023-04-26T13:31:11.982Z,5.15
2023-04-26T13:33:44.397Z,4.63
2023-04-26T13:36:11.045Z,5.18
2023-04-26T13:38:37.792Z,4.97
2023-04-26T13:41:04.690Z,5.65
2023-04-26T13:43:31.264Z,5.00
2023-04-26T13:45:57.940Z,4.38
2023-04-26T13:48:24.651Z,5.07
2023-04-26T13:50:56.209Z,5.30
2023-04-26T13:53:22.858Z,5.20
2023-04-26T13:55:49.596Z,4.03
2023-04-26T13:58:16.521Z,4.35
2023-04-26T14:00:46.227Z,16.00
2023-04-26T14:03:12.982Z,5.00
2023-04-26T14:05:39.684Z,4.70
2023-04-26T14:08:06.495Z,4.95
2023-04-26T14:10:35.726Z,4.00
2023-04-26T14:13:02.399Z,4.40
2023-04-26T14:15:39.017Z,4.15
2023-04-26T14:18:06.292Z,4.20
2023-04-26T14:20:36.586Z,4.20
2023-04-26T14:23:06.409Z,4.95
2023-04-26T14:25:35.932Z,4.30
2023-04-26T14:28:03.633Z,4.00
2023-04-26T14:30:31.301Z,4.43
2023-04-26T14:32:57.965Z,3.90
2023-04-26T14:35:24.607Z,4.43
2023-04-26T14:37:57.728Z,4.20
2023-04-26T14:40:39.581Z,4.07
2023-04-26T14:43:08.944Z,3.88
2023-04-26T14:45:44.182Z,4.03
2023-04-26T14:48:12.563Z,4.03
2023-04-26T14:50:39.243Z,4.22
2023-04-26T14:53:05.935Z,4.97
2023-04-26T14:55:32.680Z,3.97
2023-04-26T14:57:59.366Z,4.65
2023-04-26T15:00:26.110Z,4.25
2023-04-26T15:02:52.881Z,4.25
2023-04-26T15:05:21.308Z,4.32
2023-04-26T15:07:48.032Z,4.45
2023-04-26T15:10:14.630Z,4.10
2023-04-26T15:12:41.858Z,4.53
2023-04-26T15:15:08.737Z,4.65
2023-04-26T15:17:35.466Z,4.40
2023-04-26T15:20:02.137Z,4.85
2023-04-26T15:22:28.902Z,3.72
2023-04-26T15:25:01.616Z,3.88
2023-04-26T15:27:30.957Z,4.00
2023-04-26T15:29:58.706Z,4.47
2023-04-26T15:32:26.168Z,4.22
2023-04-26T15:34:52.950Z,4.13
2023-04-26T15:37:25.994Z,3.92
2023-04-26T15:39:52.877Z,4.53
2023-04-26T15:42:22.655Z,4.55
2023-04-26T15:44:50.076Z,4.32
2023-04-26T15:47:32.962Z,4.38
2023-04-26T15:50:04.643Z,3.92
2023-04-26T15:52:37.707Z,3.88
2023-04-26T15:55:11.970Z,4.32
2023-04-26T15:57:41.639Z,3.88
2023-04-26T16:00:14.299Z,3.83
2023-04-26T16:02:42.762Z,3.90
2023-04-26T16:05:09.987Z,3.58
2023-04-26T16:07:38.982Z,4.10
2023-04-26T16:10:09.836Z,3.95
2023-04-26T16:12:41.709Z,3.63
2023-04-26T16:15:09.802Z,3.95
2023-04-26T16:17:50.667Z,4.57
2023-04-26T16:20:17.591Z,4.90
2023-04-26T16:22:46.893Z,3.47
2023-04-26T16:25:44.201Z,3.33
2023-04-26T16:28:47.244Z,3.85
2023-04-26T16:31:14.009Z,3.33
2023-04-26T16:33:40.807Z,3.80
2023-04-26T16:36:09.091Z,3.20
2023-04-26T16:38:36.154Z,3.47
2023-04-26T16:41:02.896Z,3.00
2023-04-26T16:43:43.799Z,3.13
2023-04-26T16:46:10.536Z,3.03
2023-04-26T16:48:38.897Z,2.83
2023-04-26T16:51:07.608Z,3.17
2023-04-26T16:53:40.186Z,2.90
2023-04-26T16:56:07.291Z,2.80
2023-04-26T16:58:34.256Z,3.17
2023-04-26T17:01:01.225Z,4.60
2023-04-26T17:03:28.491Z,3.20
2023-04-26T17:05:57.831Z,3.30
2023-04-26T17:08:31.130Z,3.42
2023-04-26T17:10:57.963Z,3.85
2023-04-26T17:13:37.672Z,3.17
2023-04-26T17:16:06.486Z,3.30
2023-04-26T17:18:33.283Z,4.22
2023-04-26T17:21:00.398Z,3.13
2023-04-26T17:23:42.745Z,3.90
2023-04-26T17:26:24.328Z,3.40
2023-04-26T17:28:51.507Z,3.55
2023-04-26T17:31:23.882Z,3.67
2023-04-26T17:33:53.308Z,3.10
2023-04-26T17:36:21.070Z,3.80
2023-04-26T17:38:50.134Z,3.90
2023-04-26T17:41:29.680Z,3.17
2023-04-26T17:43:59.168Z,3.60
2023-04-26T17:46:26.167Z,3.55
2023-04-26T17:48:53.195Z,2.90
2023-04-26T17:51:21.952Z,3.55
2023-04-26T17:53:48.631Z,3.08
2023-04-26T17:56:19.219Z,3.40
2023-04-26T17:58:52.267Z,3.80
2023-04-26T18:01:21.481Z,3.70
2023-04-26T18:06:42.948Z,4.30
2023-04-26T18:09:15.776Z,3.90
2023-04-26T18:11:47.935Z,3.47
2023-04-26T18:14:15.092Z,3.33
2023-04-26T18:16:45.217Z,3.58
2023-04-26T18:19:15.064Z,3.40
2023-04-26T18:21:44.421Z,3.45
2023-04-26T18:24:11.562Z,3.10
2023-04-26T18:26:39.228Z,2.72
2023-04-26T18:29:07.697Z,3.28
2023-04-26T18:31:35.775Z,2.95
2023-04-26T18:34:03.615Z,3.30
2023-04-26T18:36:33.269Z,2.63
2023-04-26T18:39:06.160Z,3.42
2023-04-26T18:41:34.300Z,2.95
2023-04-26T18:44:01.109Z,3.20
2023-04-26T18:46:27.788Z,2.88
2023-04-26T18:48:54.466Z,3.25
2023-04-26T18:51:21.075Z,3.15
2023-04-26T18:53:47.687Z,3.10
2023-04-26T18:56:14.290Z,3.83
2023-04-26T18:58:44.110Z,3.10
2023-04-26T19:01:10.727Z,3.35
2023-04-26T19:03:37.682Z,3.42
2023-04-26T19:06:09.134Z,3.60
2023-04-26T19:08:36.146Z,3.70
2023-04-26T19:11:03.488Z,3.10
2023-04-26T19:13:30.124Z,3.65
2023-04-26T19:15:56.876Z,3.50
2023-04-26T19:18:23.487Z,3.72
2023-04-26T19:20:57.066Z,3.67
2023-04-26T19:25:50.253Z,4.10
2023-04-26T19:28:16.875Z,3.70
2023-04-26T19:30:43.713Z,4.07
2023-04-26T19:33:10.503Z,3.85
2023-04-26T19:35:37.365Z,3.60
2023-04-26T19:38:06.836Z,3.85
2023-04-26T19:40:33.542Z,4.45
2023-04-26T19:43:00.066Z,4.03
2023-04-26T19:45:26.673Z,4.05
2023-04-26T19:47:53.492Z,4.22
2023-04-26T19:50:20.184Z,4.25
2023-04-26T19:52:46.799Z,4.00
2023-04-26T19:55:13.619Z,4.82
2023-04-26T19:57:41.123Z,4.50
2023-04-26T20:00:08.292Z,3.90
2023-04-26T20:02:35.609Z,4.20
2023-04-26T20:05:02.454Z,4.30
2023-04-26T20:07:29.788Z,4.53
2023-04-26T20:09:56.547Z,4.50
2023-04-26T20:12:24.204Z,4.65
2023-04-26T20:14:51.195Z,4.63
2023-04-26T20:17:17.946Z,5.03
2023-04-26T20:19:44.878Z,6.00
2023-04-26T20:22:11.818Z,5.10
2023-04-26T20:24:38.351Z,5.38
2023-04-26T20:27:05.040Z,5.82
2023-04-26T20:29:31.909Z,6.07
2023-04-26T20:31:58.720Z,5.32
2023-04-26T20:34:25.891Z,4.88
2023-04-26T20:36:52.558Z,5.63
2023-04-26T20:39:21.493Z,5.80
2023-04-26T20:41:48.115Z,5.30
2023-04-26T20:44:18.550Z,5.78
2023-04-26T20:46:45.111Z,4.90
2023-04-26T20:49:17.806Z,5.10
2023-04-26T20:51:44.518Z,4.93
2023-04-26T20:54:11.270Z,5.13
2023-04-26T20:56:38.635Z,4.63
2023-04-26T20:59:05.440Z,5.32
2023-04-26T21:01:33.781Z,5.25
2023-04-26T21:04:01.232Z,4.97
2023-04-26T21:06:28.256Z,6.05
2023-04-26T21:08:54.905Z,5.43
2023-04-26T21:11:27.751Z,5.97
2023-04-26T21:13:54.336Z,5.57
2023-04-26T21:16:30.687Z,5.63
2023-04-26T21:18:57.229Z,6.30
2023-04-26T21:21:24.641Z,6.03
2023-04-26T21:23:52.041Z,6.18
2023-04-26T21:26:18.613Z,4.85
2023-04-26T21:28:45.558Z,5.35
2023-04-26T21:31:12.201Z,5.72
2023-04-26T21:33:41.333Z,5.05
2023-04-26T21:36:14.013Z,4.85
2023-04-26T21:38:40.653Z,5.10
2023-04-26T21:41:07.462Z,5.20
2023-04-26T21:43:36.709Z,4.75
2023-04-26T21:46:03.703Z,4.90
2023-04-26T21:48:30.480Z,4.97
2023-04-26T21:50:57.143Z,4.60
2023-04-26T21:53:23.769Z,5.40
2023-04-26T21:55:54.330Z,4.68
2023-04-26T21:58:24.734Z,6.00
2023-04-26T22:00:51.793Z,4.70
2023-04-26T22:03:19.089Z,4.80
2023-04-26T22:05:46.064Z,4.63
2023-04-26T22:08:15.215Z,5.18
2023-04-26T22:10:42.012Z,4.70
2023-04-26T22:13:08.668Z,5.65
2023-04-26T22:15:35.500Z,5.03
2023-04-26T22:18:02.243Z,4.68
2023-04-26T22:20:30.104Z,5.47
2023-04-26T22:22:56.773Z,5.13
2023-04-26T22:25:24.458Z,4.35
2023-04-26T22:27:51.334Z,4.70
2023-04-26T22:30:25.355Z,4.57
2023-04-26T22:32:54.974Z,4.35
2023-04-26T22:35:22.574Z,4.22
2023-04-26T22:37:49.382Z,4.10
2023-04-26T22:40:16.509Z,4.82
2023-04-26T22:42:43.757Z,4.53
2023-04-26T22:45:11.758Z,4.22
2023-04-26T22:47:39.202Z,4.25
2023-04-26T22:50:07.536Z,4.63
2023-04-26T22:52:34.617Z,4.65
2023-04-26T22:55:01.373Z,5.03
2023-04-26T22:57:29.492Z,4.53
2023-04-26T22:59:56.158Z,4.38
2023-04-26T23:02:22.851Z,4.82
2023-04-26T23:04:49.568Z,4.70
2023-04-26T23:07:16.579Z,5.10
2023-04-26T23:09:43.272Z,4.68
2023-04-26T23:12:09.944Z,5.15
2023-04-26T23:14:36.555Z,5.00
2023-04-26T23:17:03.244Z,5.43
2023-04-26T23:19:29.876Z,5.90
2023-04-26T23:21:56.501Z,5.10
2023-04-26T23:24:23.160Z,5.72
2023-04-26T23:26:49.782Z,5.40
2023-04-26T23:29:16.469Z,5.05
2023-04-26T23:31:43.122Z,5.43
2023-04-26T23:34:09.992Z,5.80
2023-04-26T23:36:36.602Z,4.90
2023-04-26T23:39:03.895Z,4.63
2023-04-26T23:41:30.999Z,5.20
2023-04-26T23:43:57.684Z,5.03
2023-04-26T23:46:24.413Z,5.03
2023-04-26T23:48:51.171Z,4.97
2023-04-26T23:51:17.830Z,4.43
2023-04-26T23:53:45.003Z,4.35
2023-04-26T23:56:11.706Z,5.20
2023-04-26T23:58:38.365Z,5.53
